Time;durP1;ratioP1;P1;durP2;ratioP2;P2;SDS_P1;SDS_P2;PMS_P1;PMS_P2;Temp;Humidity;BMP_temperature;BMP_pressure;BME280_temperature;BME280_humidity;BME280_pressure;Samples;Min_cycle;Max_cycle;Signal;HPM_P1;HPM_P2
2022/06/07 00:00:27;;;;;;;18.00;13.80;;;12.30;99.90;;;;;;5050787;28;20052;-25
2022/06/07 00:02:52;;;;;;;18.55;14.00;;;12.30;99.90;;;;;;5049034;28;20295;-25
2022/06/07 00:05:18;;;;;;;19.52;14.93;;;12.40;99.90;;;;;;5050886;28;20124;-25
2022/06/07 00:07:44;;;;;;;20.35;15.75;;;12.40;99.90;;;;;;5049105;28;20037;-25
2022/06/07 00:10:10;;;;;;;21.83;16.38;;;12.40;99.90;;;;;;5050617;28;20037;-25
2022/06/07 00:12:36;;;;;;;22.17;15.10;;;12.40;99.90;;;;;;5032767;28;20037;-25
2022/06/07 00:15:02;;;;;;;23.10;16.45;;;12.40;99.90;;;;;;5044544;28;20419;-26
2022/06/07 00:17:28;;;;;;;21.52;16.48;;;12.40;99.90;;;;;;5048205;28;21130;-25
2022/06/07 00:19:54;;;;;;;20.15;16.35;;;12.40;99.90;;;;;;5049587;28;20049;-25
2022/06/07 00:22:19;;;;;;;25.00;17.73;;;12.40;99.90;;;;;;5050538;28;20033;-25
2022/06/07 00:24:45;;;;;;;22.63;16.75;;;12.40;99.90;;;;;;5032986;28;20101;-25
2022/06/07 00:27:12;;;;;;;22.80;17.20;;;12.40;99.90;;;;;;5050380;28;20048;-25
2022/06/07 00:29:40;;;;;;;17.48;15.32;;;12.40;99.90;;;;;;5030649;28;20503;-25
2022/06/07 00:32:08;;;;;;;18.65;14.73;;;12.40;99.90;;;;;;5046554;28;20230;-25
2022/06/07 00:34:34;;;;;;;18.10;16.15;;;12.50;99.90;;;;;;5045733;28;20048;-25
2022/06/07 00:37:01;;;;;;;18.65;15.55;;;12.50;99.90;;;;;;5044264;28;20084;-25
2022/06/07 00:39:28;;;;;;;17.77;15.20;;;12.50;99.90;;;;;;5032537;28;20496;-25
2022/06/07 00:41:53;;;;;;;18.23;16.08;;;12.50;99.90;;;;;;5048567;28;20041;-25
2022/06/07 00:44:25;;;;;;;20.17;16.70;;;12.60;99.90;;;;;;5050162;28;20043;-25
2022/06/07 00:46:54;;;;;;;20.52;17.20;;;12.50;99.90;;;;;;5050502;28;20041;-25
2022/06/07 00:49:22;;;;;;;20.20;17.08;;;12.60;99.90;;;;;;5050088;28;20467;-25
2022/06/07 00:51:49;;;;;;;20.25;17.35;;;12.60;99.90;;;;;;5048261;28;20041;-25
2022/06/07 00:54:19;;;;;;;20.20;16.77;;;12.60;99.90;;;;;;5009098;28;20137;-25
2022/06/07 00:56:46;;;;;;;23.73;18.42;;;12.60;99.90;;;;;;5026431;28;20066;-25
2022/06/07 00:59:11;;;;;;;22.25;17.05;;;12.60;99.90;;;;;;5043329;28;20040;-25
2022/06/07 01:01:37;;;;;;;18.65;16.60;;;12.60;99.90;;;;;;5050678;28;20071;-26
2022/06/07 01:04:03;;;;;;;19.63;16.23;;;12.60;99.90;;;;;;5048320;28;20063;-25
2022/06/07 01:11:57;;;;;;;;;;;12.60;99.90;;;;;;5048703;28;20071;-26
2022/06/07 01:14:23;;;;;;;19.02;16.55;;;12.60;99.90;;;;;;5047457;28;20379;-25
2022/06/07 01:16:49;;;;;;;18.98;16.98;;;12.60;99.90;;;;;;5047430;28;20045;-25
2022/06/07 01:19:14;;;;;;;18.30;15.50;;;12.70;99.90;;;;;;5015060;28;20067;-24
2022/06/07 01:21:41;;;;;;;19.77;15.60;;;12.70;99.90;;;;;;5049926;28;20480;-24
2022/06/07 01:24:08;;;;;;;19.95;15.65;;;12.60;99.90;;;;;;5048126;28;20526;-25
2022/06/07 01:26:34;;;;;;;19.02;15.60;;;12.70;99.90;;;;;;5024775;28;20048;-24
2022/06/07 01:28:59;;;;;;;16.65;14.13;;;12.70;99.90;;;;;;5048086;28;20034;-24
2022/06/07 01:31:25;;;;;;;17.38;14.23;;;12.70;99.90;;;;;;5048580;28;20040;-24
2022/06/07 01:33:51;;;;;;;20.83;15.38;;;12.70;99.90;;;;;;5048053;28;20116;-24
2022/06/07 01:36:18;;;;;;;17.27;15.43;;;12.70;99.90;;;;;;5048795;28;20077;-24
2022/06/07 01:41:53;;;;;;;16.52;14.63;;;12.70;99.90;;;;;;5048330;28;20396;-24
2022/06/07 01:44:16;;;;;;;;;;;12.70;99.90;;;;;;5048457;28;20041;-24
2022/06/07 01:46:41;;;;;;;16.42;13.52;;;12.70;99.90;;;;;;5046886;28;20012;-24
2022/06/07 01:49:08;;;;;;;17.77;13.55;;;12.70;99.90;;;;;;5048647;28;20041;-24
2022/06/07 01:51:34;;;;;;;19.27;14.18;;;12.70;99.90;;;;;;5047345;28;20083;-24
2022/06/07 01:54:00;;;;;;;16.88;14.05;;;12.70;99.90;;;;;;5030451;28;20081;-24
2022/06/07 01:56:26;;;;;;;17.50;14.80;;;12.70;99.90;;;;;;5046895;28;20037;-24
2022/06/07 01:58:52;;;;;;;20.05;13.95;;;12.70;99.90;;;;;;5045389;28;20037;-24
2022/06/07 02:01:19;;;;;;;16.35;13.48;;;12.70;99.90;;;;;;5028312;28;20453;-24
2022/06/07 02:03:44;;;;;;;17.00;13.95;;;12.70;99.90;;;;;;5031764;28;20119;-25
2022/06/07 02:06:12;;;;;;;18.38;14.43;;;12.70;99.90;;;;;;5048528;28;20121;-24
2022/06/07 02:08:40;;;;;;;19.25;14.77;;;12.70;99.90;;;;;;5046914;28;20043;-24
2022/06/07 02:11:18;;;;;;;20.65;15.57;;;12.70;99.90;;;;;;5046457;28;20053;-25
2022/06/07 02:13:46;;;;;;;19.10;14.80;;;12.70;99.90;;;;;;5020812;28;20033;-24
2022/06/07 02:16:13;;;;;;;19.17;14.90;;;12.70;99.90;;;;;;5051120;28;20453;-24
2022/06/07 02:18:39;;;;;;;17.63;14.48;;;12.70;99.90;;;;;;5052946;28;20143;-24
2022/06/07 02:21:06;;;;;;;18.40;14.93;;;12.70;99.90;;;;;;5016526;28;20133;-24
2022/06/07 02:23:33;;;;;;;18.42;14.27;;;12.70;99.90;;;;;;5052975;28;20041;-24
2022/06/07 02:26:04;;;;;;;17.98;14.82;;;12.70;99.90;;;;;;5050790;28;20037;-25
2022/06/07 02:28:34;;;;;;;18.35;14.52;;;12.70;99.90;;;;;;5030612;28;20098;-25
2022/06/07 02:31:00;;;;;;;19.58;14.35;;;12.80;99.90;;;;;;5050767;28;20037;-25
2022/06/07 02:33:27;;;;;;;18.60;15.07;;;12.70;99.90;;;;;;5049730;28;20038;-24
2022/06/07 02:35:54;;;;;;;19.15;14.77;;;12.70;99.90;;;;;;5049873;28;20037;-24
2022/06/07 02:38:21;;;;;;;20.00;15.90;;;12.80;99.90;;;;;;5033840;28;20037;-25
2022/06/07 02:40:49;;;;;;;19.75;15.75;;;12.70;99.90;;;;;;5050204;28;20373;-25
2022/06/07 02:43:15;;;;;;;19.38;15.40;;;12.70;99.90;;;;;;5051424;28;20496;-24
2022/06/07 02:45:41;;;;;;;19.60;15.27;;;12.70;99.90;;;;;;5044799;28;20037;-24
2022/06/07 02:48:07;;;;;;;19.95;14.82;;;12.70;99.90;;;;;;5044613;28;20398;-24
2022/06/07 02:50:33;;;;;;;19.77;15.90;;;12.70;99.90;;;;;;5043926;28;20044;-25
2022/06/07 02:52:59;;;;;;;22.20;15.93;;;12.70;99.90;;;;;;5038028;28;20041;-25
2022/06/07 02:55:25;;;;;;;19.40;15.18;;;12.70;99.90;;;;;;5045191;28;20041;-25
2022/06/07 02:57:51;;;;;;;21.52;16.00;;;12.70;99.90;;;;;;5047966;28;20045;-25
2022/06/07 03:00:17;;;;;;;18.92;14.82;;;12.70;99.90;;;;;;5042600;28;20029;-25
2022/06/07 03:02:44;;;;;;;22.25;14.88;;;12.70;99.90;;;;;;5040942;28;20038;-25
2022/06/07 03:05:10;;;;;;;20.33;16.63;;;12.70;99.90;;;;;;5042071;28;20115;-25
2022/06/07 03:07:37;;;;;;;21.75;16.27;;;12.70;99.90;;;;;;5043955;28;20124;-25
2022/06/07 03:10:05;;;;;;;20.13;16.02;;;12.70;99.90;;;;;;5044392;28;20045;-25
2022/06/07 03:12:32;;;;;;;23.23;17.33;;;12.70;99.90;;;;;;5041306;28;20318;-25
2022/06/07 03:14:58;;;;;;;20.40;15.93;;;12.70;99.90;;;;;;5039383;28;20103;-25
2022/06/07 03:17:24;;;;;;;19.80;16.27;;;12.70;99.90;;;;;;5042791;28;20087;-27
2022/06/07 03:19:51;;;;;;;22.20;16.90;;;12.70;99.90;;;;;;5020669;28;20041;-25
2022/06/07 03:22:18;;;;;;;21.02;16.42;;;12.70;99.90;;;;;;5000760;28;20057;-25
2022/06/07 03:24:44;;;;;;;21.48;17.05;;;12.70;99.90;;;;;;5034757;28;20041;-25
2022/06/07 03:27:11;;;;;;;19.60;16.63;;;12.70;99.90;;;;;;5034112;28;20451;-24
2022/06/07 03:29:37;;;;;;;19.83;16.23;;;12.70;99.90;;;;;;5034224;28;20412;-25
2022/06/07 03:32:05;;;;;;;19.20;16.10;;;12.70;99.90;;;;;;5015922;28;20056;-25
2022/06/07 03:34:31;;;;;;;21.33;15.57;;;12.70;99.90;;;;;;5034257;28;20041;-25
2022/06/07 03:36:57;;;;;;;21.58;16.05;;;12.70;99.90;;;;;;5034065;28;20041;-25
2022/06/07 03:39:22;;;;;;;20.38;15.35;;;12.70;99.90;;;;;;5033875;28;20041;-25
2022/06/07 03:41:48;;;;;;;19.45;15.63;;;12.70;99.90;;;;;;5015951;28;20049;-25
2022/06/07 03:44:14;;;;;;;20.90;15.93;;;12.70;99.90;;;;;;5033674;28;20063;-25
2022/06/07 03:46:43;;;;;;;18.13;15.15;;;12.70;99.90;;;;;;5033513;28;20037;-25
2022/06/07 03:49:09;;;;;;;19.98;15.98;;;12.70;99.90;;;;;;5033748;28;20049;-24
2022/06/07 03:51:35;;;;;;;20.20;15.77;;;12.70;99.90;;;;;;5033797;28;20038;-25
2022/06/07 03:54:03;;;;;;;18.25;15.23;;;12.70;99.90;;;;;;5033812;28;20131;-25
2022/06/07 03:56:30;;;;;;;21.83;17.45;;;12.80;99.90;;;;;;5036051;28;20087;-25
2022/06/07 03:58:57;;;;;;;21.20;15.75;;;12.80;99.90;;;;;;5047585;28;20047;-27
2022/06/07 04:01:24;;;;;;;19.73;16.23;;;12.80;99.90;;;;;;5046455;28;20052;-25
2022/06/07 04:03:52;;;;;;;19.33;15.68;;;12.80;99.90;;;;;;5049030;28;20091;-26
2022/06/07 04:06:30;;;;;;;17.77;15.02;;;12.80;99.90;;;;;;5051724;28;20037;-26
2022/06/07 04:08:56;;;;;;;19.08;15.70;;;12.90;99.90;;;;;;5048822;28;20395;-26
2022/06/07 04:11:24;;;;;;;20.60;15.15;;;12.90;99.90;;;;;;5037489;28;20108;-26
2022/06/07 04:13:51;;;;;;;20.23;14.75;;;12.90;99.90;;;;;;5049743;28;20411;-25
2022/06/07 04:16:20;;;;;;;18.50;14.05;;;12.90;99.90;;;;;;5046764;28;20051;-25
2022/06/07 04:18:46;;;;;;;19.17;14.50;;;12.90;99.90;;;;;;5031893;28;20503;-26
2022/06/07 04:21:13;;;;;;;17.25;14.05;;;12.90;99.90;;;;;;5045155;28;20045;-27
2022/06/07 04:23:39;;;;;;;20.75;15.13;;;12.90;99.90;;;;;;5046509;28;20029;-25
2022/06/07 04:26:11;;;;;;;19.40;15.80;;;12.90;99.90;;;;;;5040444;28;20091;-25
2022/06/07 04:28:37;;;;;;;20.13;14.88;;;12.90;99.90;;;;;;5048951;28;20125;-26
2022/06/07 04:31:03;;;;;;;22.05;15.20;;;12.90;99.90;;;;;;5041726;28;20060;-25
2022/06/07 04:33:29;;;;;;;18.75;15.10;;;12.90;99.90;;;;;;5043560;28;20068;-25
2022/06/07 04:35:54;;;;;;;19.55;14.73;;;12.90;99.90;;;;;;5049701;28;20044;-25
2022/06/07 04:38:20;;;;;;;20.42;14.65;;;12.90;99.90;;;;;;5044010;28;20037;-25
2022/06/07 04:40:46;;;;;;;17.92;13.48;;;12.90;99.90;;;;;;5041106;28;20044;-25
2022/06/07 04:43:12;;;;;;;21.95;15.15;;;13.00;99.90;;;;;;5049135;28;20056;-25
2022/06/07 04:45:40;;;;;;;19.27;14.20;;;13.00;99.90;;;;;;5041016;28;20050;-25
2022/06/07 04:48:07;;;;;;;19.83;14.48;;;13.00;99.90;;;;;;5041973;28;20061;-25
2022/06/07 04:50:34;;;;;;;18.30;14.40;;;13.00;99.90;;;;;;5025755;28;20045;-25
2022/06/07 04:53:00;;;;;;;19.17;15.15;;;13.10;99.90;;;;;;5048945;28;20033;-25
2022/06/07 04:55:26;;;;;;;19.70;15.35;;;13.10;99.90;;;;;;5043250;28;20087;-25
2022/06/07 04:57:52;;;;;;;19.63;14.10;;;13.10;99.90;;;;;;5040573;28;20408;-25
2022/06/07 05:00:18;;;;;;;21.50;15.27;;;13.10;99.90;;;;;;5051600;28;20033;-25
2022/06/07 05:02:46;;;;;;;20.20;13.90;;;13.10;99.90;;;;;;5040112;28;20037;-25
2022/06/07 05:05:14;;;;;;;19.52;14.52;;;13.10;99.90;;;;;;5040825;28;20073;-25
2022/06/07 05:07:39;;;;;;;20.92;13.52;;;13.20;99.90;;;;;;5048784;28;20516;-25
2022/06/07 05:10:08;;;;;;;19.98;14.23;;;13.10;99.90;;;;;;5026263;28;20077;-26
2022/06/07 05:12:35;;;;;;;21.30;15.23;;;13.20;99.90;;;;;;5048880;28;20033;-25
2022/06/07 05:15:01;;;;;;;20.80;14.45;;;13.20;99.90;;;;;;5051281;28;20069;-25
2022/06/07 05:17:27;;;;;;;17.80;14.23;;;13.20;99.90;;;;;;5049480;28;20411;-25
2022/06/07 05:19:53;;;;;;;18.88;14.38;;;13.30;99.90;;;;;;5053009;28;20033;-25
2022/06/07 05:22:19;;;;;;;20.38;14.27;;;13.30;99.90;;;;;;5051718;28;20435;-25
2022/06/07 05:24:45;;;;;;;20.08;14.77;;;13.30;99.90;;;;;;5048700;28;20067;-25
2022/06/07 05:27:20;;;;;;;19.38;13.95;;;13.40;99.90;;;;;;5051381;28;20033;-25
2022/06/07 05:29:49;;;;;;;19.83;14.60;;;13.40;99.90;;;;;;5050459;28;20036;-25
2022/06/07 05:32:16;;;;;;;18.42;13.57;;;13.40;99.90;;;;;;5052395;28;20053;-26
2022/06/07 05:34:42;;;;;;;19.10;13.40;;;13.50;99.90;;;;;;5034384;28;20622;-26
2022/06/07 05:37:13;;;;;;;20.40;13.70;;;13.50;99.90;;;;;;5051507;28;20061;-26
2022/06/07 05:39:39;;;;;;;19.23;13.52;;;13.50;99.90;;;;;;5046861;28;20383;-26
2022/06/07 05:42:06;;;;;;;18.75;14.13;;;13.50;99.90;;;;;;5011430;28;20041;-25
2022/06/07 05:44:32;;;;;;;18.13;13.90;;;13.60;99.90;;;;;;5046418;28;20126;-25
2022/06/07 05:46:59;;;;;;;17.73;13.95;;;13.60;99.90;;;;;;5050920;28;20033;-25
2022/06/07 05:49:26;;;;;;;18.83;13.93;;;13.60;99.90;;;;;;5013291;28;20044;-26
2022/06/07 05:51:52;;;;;;;16.50;13.35;;;13.60;99.90;;;;;;5028971;28;20518;-26
2022/06/07 05:54:18;;;;;;;17.50;13.45;;;13.70;99.90;;;;;;5042727;28;20059;-26
2022/06/07 05:56:44;;;;;;;18.80;14.05;;;13.60;99.90;;;;;;5050651;28;20041;-26
2022/06/07 05:59:11;;;;;;;24.30;13.82;;;13.70;99.90;;;;;;5050322;28;20102;-26
2022/06/07 06:01:38;;;;;;;16.88;13.77;;;13.70;99.90;;;;;;5048110;28;20044;-26
2022/06/07 06:04:06;;;;;;;20.88;13.73;;;13.70;99.90;;;;;;5049292;28;20099;-26
2022/06/07 06:06:33;;;;;;;18.77;13.57;;;13.80;99.90;;;;;;5048448;28;20095;-26
2022/06/07 06:11:44;;;;;;;15.77;13.70;;;13.80;99.90;;;;;;5049307;28;20438;-26
2022/06/07 06:14:10;;;;;;;16.98;12.50;;;13.80;99.90;;;;;;5048215;28;20037;-26
2022/06/07 06:16:37;;;;;;;18.27;13.88;;;13.90;99.90;;;;;;5045954;28;20044;-26
2022/06/07 06:19:04;;;;;;;17.30;13.52;;;13.90;99.90;;;;;;5036449;28;20364;-25
2022/06/07 06:21:37;;;;;;;16.95;12.77;;;13.90;99.90;;;;;;5040616;28;20116;-25
2022/06/07 06:24:04;;;;;;;17.52;13.77;;;14.00;99.90;;;;;;5038747;28;20072;-25
2022/06/07 06:26:30;;;;;;;16.83;13.10;;;14.00;99.90;;;;;;5011457;28;20451;-25
2022/06/07 06:28:56;;;;;;;19.35;14.20;;;14.00;99.90;;;;;;5045218;28;20045;-25
2022/06/07 06:31:23;;;;;;;16.27;13.23;;;14.00;99.90;;;;;;5047568;28;20045;-26
2022/06/07 06:33:52;;;;;;;16.90;13.35;;;13.90;99.90;;;;;;5036691;28;20441;-25
2022/06/07 06:36:25;;;;;;;17.80;13.05;;;13.90;99.90;;;;;;5047693;28;20037;-25
2022/06/07 06:38:51;;;;;;;16.88;12.70;;;13.80;99.90;;;;;;5041454;28;20427;-25
2022/06/07 06:41:29;;;;;;;15.27;12.80;;;13.80;99.90;;;;;;5040207;28;20116;-25
2022/06/07 06:43:56;;;;;;;17.10;12.55;;;13.70;99.90;;;;;;5026058;28;20056;-25
2022/06/07 06:46:29;;;;;;;16.25;12.13;;;13.70;99.90;;;;;;5040468;28;20128;-25
2022/06/07 06:48:55;;;;;;;15.75;12.52;;;13.70;99.90;;;;;;5037862;28;20512;-25
2022/06/07 06:51:24;;;;;;;15.10;12.45;;;13.70;99.90;;;;;;5022736;28;20041;-25
2022/06/07 06:53:50;;;;;;;15.18;12.05;;;13.60;99.90;;;;;;5023575;28;20512;-26
2022/06/07 06:56:21;;;;;;;18.33;13.07;;;13.60;99.90;;;;;;5019415;28;20064;-25
2022/06/07 06:58:57;;;;;;;19.27;13.48;;;13.60;99.90;;;;;;5057903;28;20043;-27
2022/06/07 07:01:31;;;;;;;21.83;12.85;;;13.50;99.90;;;;;;5022049;28;20037;-26
2022/06/07 07:04:00;;;;;;;16.05;13.27;;;13.50;99.90;;;;;;5020947;28;20043;-26
2022/06/07 07:06:27;;;;;;;16.98;12.70;;;13.40;99.90;;;;;;5037779;28;20128;-27
2022/06/07 07:08:54;;;;;;;19.40;13.95;;;13.40;99.90;;;;;;5020839;28;20045;-27
2022/06/07 07:11:28;;;;;;;16.45;14.00;;;13.30;99.90;;;;;;5055983;28;20516;-26
2022/06/07 07:13:55;;;;;;;16.75;13.02;;;13.30;99.90;;;;;;5053898;28;20099;-26
2022/06/07 07:16:24;;;;;;;17.45;14.32;;;13.30;99.90;;;;;;5055847;28;20041;-26
2022/06/07 07:18:50;;;;;;;17.17;14.18;;;13.30;99.90;;;;;;5036055;28;20120;-26
2022/06/07 07:21:26;;;;;;;19.13;14.50;;;13.30;99.90;;;;;;5055669;28;20036;-26
2022/06/07 07:23:52;;;;;;;20.20;14.80;;;13.40;99.90;;;;;;5056667;28;20120;-26
2022/06/07 07:26:24;;;;;;;18.23;13.68;;;13.30;99.90;;;;;;5037613;28;20496;-26
2022/06/07 07:28:52;;;;;;;19.55;14.25;;;13.40;99.90;;;;;;5033271;28;20033;-26
2022/06/07 07:31:21;;;;;;;17.92;12.63;;;13.40;99.90;;;;;;5036719;28;20064;-26
2022/06/07 07:33:47;;;;;;;18.35;13.43;;;13.40;99.90;;;;;;5055251;28;20037;-25
2022/06/07 07:36:13;;;;;;;16.50;13.35;;;13.50;99.90;;;;;;5055050;28;20037;-28
2022/06/07 07:38:40;;;;;;;17.77;12.82;;;13.50;99.90;;;;;;5035690;28;20400;-28
2022/06/07 07:41:14;;;;;;;15.82;12.10;;;13.60;99.90;;;;;;5047345;28;20095;-28
2022/06/07 07:43:40;;;;;;;17.90;12.25;;;13.60;99.90;;;;;;5049048;28;20040;-29
2022/06/07 07:46:06;;;;;;;17.25;13.05;;;13.50;99.90;;;;;;5019092;28;20033;-28
2022/06/07 07:48:32;;;;;;;17.00;13.25;;;13.50;99.90;;;;;;5026709;28;20041;-28
2022/06/07 07:51:04;;;;;;;17.08;13.10;;;13.50;99.90;;;;;;5053651;28;20051;-28
2022/06/07 07:53:30;;;;;;;14.68;12.95;;;13.50;99.90;;;;;;5035361;28;20037;-28
2022/06/07 07:55:56;;;;;;;14.77;12.00;;;13.50;99.90;;;;;;5046070;28;20521;-28
2022/06/07 07:58:23;;;;;;;15.82;13.73;;;13.50;99.90;;;;;;5052732;28;20041;-28
2022/06/07 08:00:49;;;;;;;16.17;12.73;;;13.50;99.90;;;;;;5049726;28;20062;-28
2022/06/07 08:03:16;;;;;;;17.73;12.50;;;13.50;99.90;;;;;;5053700;28;20088;-28
2022/06/07 08:05:43;;;;;;;17.13;12.48;;;13.50;99.90;;;;;;5032756;28;20431;-28
2022/06/07 08:08:09;;;;;;;16.20;12.18;;;13.60;99.90;;;;;;5052945;28;20095;-28
2022/06/07 08:10:36;;;;;;;18.58;13.23;;;13.60;99.90;;;;;;5034827;28;20041;-28
2022/06/07 08:13:03;;;;;;;16.83;11.88;;;13.70;99.90;;;;;;5051827;28;20049;-28
2022/06/07 08:15:31;;;;;;;16.40;12.18;;;13.70;99.90;;;;;;5043872;28;20072;-28
2022/06/07 08:17:58;;;;;;;18.98;13.05;;;13.80;99.90;;;;;;5028925;28;20045;-28
2022/06/07 08:20:24;;;;;;;16.35;12.32;;;13.80;99.90;;;;;;5052904;28;20045;-28
2022/06/07 08:22:50;;;;;;;17.00;13.13;;;13.80;99.90;;;;;;5034997;28;20474;-29
2022/06/07 08:25:17;;;;;;;17.40;12.50;;;13.90;99.90;;;;;;5022154;28;20053;-29
2022/06/07 08:27:43;;;;;;;16.58;11.25;;;13.90;99.90;;;;;;5035549;28;20029;-29
2022/06/07 08:30:09;;;;;;;15.32;11.75;;;14.00;99.90;;;;;;5052333;28;20040;-29
2022/06/07 08:32:36;;;;;;;15.00;11.30;;;14.00;99.90;;;;;;5049087;28;20036;-29
2022/06/07 08:37:46;;;;;;;15.48;11.20;;;13.90;99.90;;;;;;5026776;28;20450;-29
2022/06/07 08:40:34;;;;;;;15.52;12.25;;;13.90;99.90;;;;;;5045649;28;20045;-29
2022/06/07 08:43:06;;;;;;;14.82;12.48;;;13.90;99.90;;;;;;5027979;28;20046;-29
2022/06/07 08:45:37;;;;;;;19.85;12.15;;;13.80;99.90;;;;;;5017125;28;20037;-28
2022/06/07 08:48:15;;;;;;;17.75;12.73;;;13.80;99.90;;;;;;5011947;28;20120;-28
2022/06/07 08:50:47;;;;;;;16.38;12.85;;;13.80;99.90;;;;;;5047754;28;20045;-28
2022/06/07 08:53:22;;;;;;;15.77;12.98;;;13.80;99.90;;;;;;5010084;28;20046;-26
2022/06/07 08:56:00;;;;;;;18.27;13.32;;;13.70;99.90;;;;;;5037440;28;20040;-26
2022/06/07 08:58:30;;;;;;;17.20;13.10;;;13.80;99.90;;;;;;5033357;28;20546;-28
2022/06/07 09:01:07;;;;;;;16.50;13.38;;;13.70;99.90;;;;;;5032253;28;20040;-28
2022/06/07 09:04:02;;;;;;;16.55;12.20;;;13.80;99.90;;;;;;5028705;28;20049;-27
2022/06/07 09:06:46;;;;;;;18.27;12.88;;;13.80;99.90;;;;;;5051485;28;20072;-28
2022/06/07 09:09:15;;;;;;;18.55;12.43;;;13.90;99.90;;;;;;5050277;28;20076;-27
2022/06/07 09:12:10;;;;;;;19.80;12.63;;;14.00;99.90;;;;;;5049811;28;20045;-27
2022/06/07 09:15:04;;;;;;;16.13;12.73;;;14.10;99.90;;;;;;5038568;28;20400;-28
2022/06/07 09:17:35;;;;;;;26.52;13.23;;;14.10;99.90;;;;;;5046945;28;20033;-28
2022/06/07 09:20:03;;;;;;;15.43;12.38;;;14.20;99.90;;;;;;5016999;28;20099;-28
2022/06/07 09:22:44;;;;;;;15.10;12.15;;;14.10;99.90;;;;;;5036612;28;20128;-28
2022/06/07 09:25:20;;;;;;;14.15;11.05;;;14.20;99.90;;;;;;5048681;28;20045;-28
2022/06/07 09:27:46;;;;;;;18.05;11.13;;;14.20;99.90;;;;;;5030273;28;20119;-28
2022/06/07 09:30:20;;;;;;;14.27;10.50;;;14.20;99.90;;;;;;5048033;28;20112;-28
2022/06/07 09:32:50;;;;;;;12.32;10.35;;;14.20;99.90;;;;;;5014475;28;20044;-28
2022/06/07 09:35:39;;;;;;;13.95;10.38;;;14.30;99.90;;;;;;5011441;28;20095;-27
2022/06/07 09:38:07;;;;;;;14.02;10.95;;;14.30;99.90;;;;;;5034022;28;20128;-26
2022/06/07 09:40:41;;;;;;;15.40;10.18;;;14.40;99.90;;;;;;5036026;28;20073;-28
2022/06/07 09:43:19;;;;;;;12.70;9.65;;;14.40;99.90;;;;;;5029273;28;20044;-28
2022/06/07 09:45:45;;;;;;;16.40;10.93;;;14.40;99.90;;;;;;5035177;28;20029;-29
2022/06/07 09:48:27;;;;;;;14.80;10.43;;;14.40;99.90;;;;;;5017734;28;20041;-29
2022/06/07 09:51:06;;;;;;;12.20;9.98;;;14.50;99.90;;;;;;5010043;28;20557;-29
2022/06/07 09:53:39;;;;;;;16.40;10.25;;;14.70;99.90;;;;;;5033193;28;20544;-28
2022/06/07 09:56:16;;;;;;;15.68;10.23;;;14.90;99.90;;;;;;5035490;28;20475;-28
2022/06/07 09:59:04;;;;;;;10.55;9.52;;;15.20;99.90;;;;;;5028749;28;20569;-29
2022/06/07 10:01:50;;;;;;;12.60;9.73;;;15.40;99.90;;;;;;5032819;28;20440;-29
2022/06/07 10:04:19;;;;;;;10.68;9.13;;;15.50;99.90;;;;;;5018209;28;20041;-29
2022/06/07 10:06:59;;;;;;;13.32;10.38;;;15.50;99.90;;;;;;5043094;28;20037;-28
2022/06/07 10:09:45;;;;;;;11.30;9.55;;;15.60;99.90;;;;;;5027600;28;20490;-27
2022/06/07 10:12:24;;;;;;;10.95;9.23;;;15.50;99.90;;;;;;5051738;28;20040;-26
2022/06/07 10:15:06;;;;;;;12.48;10.10;;;15.50;99.90;;;;;;5014206;28;20466;-26
2022/06/07 10:17:54;;;;;;;14.02;10.00;;;15.40;99.90;;;;;;5017565;28;20091;-26
2022/06/07 10:20:57;;;;;;;14.23;10.32;;;15.40;99.90;;;;;;5045802;28;20518;-25
2022/06/07 10:23:25;;;;;;;11.60;10.15;;;15.30;99.90;;;;;;5047016;28;20049;-27
2022/06/07 10:26:11;;;;;;;14.07;9.50;;;15.30;99.90;;;;;;5011645;28;20085;-26
2022/06/07 10:29:06;;;;;;;11.63;9.18;;;15.30;99.90;;;;;;5035465;28;20069;-26
2022/06/07 10:31:47;;;;;;;11.32;9.13;;;15.30;99.90;;;;;;5047338;28;20056;-26
2022/06/07 10:34:24;;;;;;;14.75;8.88;;;15.40;99.90;;;;;;5047047;28;20077;-26
2022/06/07 10:37:34;;;;;;;11.57;7.88;;;15.50;99.90;;;;;;5054532;28;20034;-26
2022/06/07 10:40:26;;;;;;;10.25;8.57;;;15.70;99.90;;;;;;4974560;28;20031;-26
2022/06/07 10:43:01;;;;;;;14.90;9.23;;;15.80;99.90;;;;;;4975022;28;20197;-27
2022/06/07 10:45:31;;;;;;;12.77;8.48;;;15.80;99.90;;;;;;5032137;28;20048;-27
2022/06/07 10:47:58;;;;;;;14.95;8.00;;;15.90;99.90;;;;;;5047142;28;20044;-27
2022/06/07 10:50:52;;;;;;;11.05;8.32;;;15.80;99.90;;;;;;5050044;28;20076;-27
2022/06/07 10:53:20;;;;;;;12.60;7.90;;;15.80;99.90;;;;;;5046604;28;20058;-27
2022/06/07 10:56:19;;;;;;;9.73;7.45;;;15.90;99.90;;;;;;5055232;28;20045;-27
2022/06/07 10:58:52;;;;;;;10.30;8.00;;;16.00;99.90;;;;;;5016317;28;20041;-27
2022/06/07 11:01:53;;;;;;;11.53;7.77;;;16.00;99.90;;;;;;5033915;28;20094;-27
2022/06/07 11:10:12;;;;;;;9.50;7.80;;;16.10;99.90;;;;;;5032615;28;20476;-28
2022/06/07 11:12:56;;;;;;;10.32;7.47;;;16.10;99.90;;;;;;5027557;28;20045;-26
2022/06/07 11:15:44;;;;;;;;;;;16.10;99.90;;;;;;5050538;28;20361;-26
2022/06/07 11:18:15;;;;;;;11.38;7.47;;;16.20;99.90;;;;;;5049700;28;20329;-27
2022/06/07 11:21:11;;;;;;;9.80;7.72;;;16.30;99.90;;;;;;5049043;28;20041;-26
2022/06/07 11:23:43;;;;;;;12.10;7.72;;;16.40;99.90;;;;;;5018050;28;20033;-27
2022/06/07 11:26:14;;;;;;;11.50;8.57;;;16.50;99.90;;;;;;5033932;28;20044;-27
2022/06/07 11:28:40;;;;;;;10.27;8.00;;;16.80;99.90;;;;;;5022819;28;20107;-27
2022/06/07 11:31:39;;;;;;;14.30;9.15;;;16.90;99.90;;;;;;5052152;28;20037;-27
2022/06/07 11:34:24;;;;;;;9.48;7.90;;;17.20;99.90;;;;;;5024463;28;20393;-28
2022/06/07 11:36:51;;;;;;;14.23;8.55;;;17.60;99.90;;;;;;5042856;28;20044;-27
2022/06/07 11:39:29;;;;;;;10.98;8.05;;;17.90;99.90;;;;;;5018574;28;20073;-27
2022/06/07 11:42:02;;;;;;;10.13;8.00;;;18.10;99.90;;;;;;5033350;28;20073;-27
2022/06/07 11:44:43;;;;;;;10.48;7.78;;;18.30;99.90;;;;;;5049879;28;20025;-27
2022/06/07 11:47:13;;;;;;;10.93;7.57;;;18.50;99.90;;;;;;5049325;28;20041;-27
2022/06/07 11:49:46;;;;;;;11.60;7.75;;;18.70;99.90;;;;;;5053889;28;20037;-27
2022/06/07 11:52:12;;;;;;;12.52;8.43;;;18.80;99.90;;;;;;5025434;28;20237;-27
2022/06/07 11:54:43;;;;;;;10.40;7.90;;;19.00;99.90;;;;;;5051755;28;20042;-27
2022/06/07 11:57:29;;;;;;;10.40;8.07;;;19.10;99.90;;;;;;5057878;28;20047;-27
2022/06/07 12:00:01;;;;;;;11.02;7.47;;;19.20;99.90;;;;;;5032011;28;20041;-27
2022/06/07 12:02:29;;;;;;;9.88;6.97;;;19.20;99.90;;;;;;5048631;28;20045;-26
2022/06/07 12:05:07;;;;;;;11.38;7.55;;;19.20;99.90;;;;;;5036677;28;20120;-27
2022/06/07 12:07:48;;;;;;;9.65;6.93;;;19.30;99.90;;;;;;5041236;28;20036;-27
2022/06/07 12:10:17;;;;;;;11.73;7.25;;;19.40;99.90;;;;;;5042920;28;20037;-28
2022/06/07 12:12:50;;;;;;;13.20;7.40;;;19.60;99.90;;;;;;5021304;28;20515;-27
2022/06/07 12:15:30;;;;;;;7.20;6.28;;;19.90;99.90;;;;;;5052927;28;20037;-27
2022/06/07 12:17:58;;;;;;;10.43;6.78;;;20.40;99.90;;;;;;5023934;28;20043;-27
2022/06/07 12:20:36;;;;;;;11.73;6.68;;;20.80;99.90;;;;;;5037275;28;20029;-28
2022/06/07 12:23:29;;;;;;;9.43;6.53;;;21.30;99.90;;;;;;5025252;28;20123;-27
2022/06/07 12:26:06;;;;;;;9.87;6.63;;;21.70;99.90;;;;;;5036668;28;20055;-28
2022/06/07 12:28:39;;;;;;;9.82;6.60;;;21.90;99.90;;;;;;5021900;28;20730;-28
2022/06/07 12:32:00;;;;;;;7.43;6.10;;;22.00;99.90;;;;;;5019365;28;20124;-27
2022/06/07 12:34:37;;;;;;;10.38;5.93;;;22.10;99.90;;;;;;5034102;28;20087;-29
2022/06/07 12:37:31;;;;;;;9.55;5.88;;;21.80;99.90;;;;;;5039887;28;20099;-27
2022/06/07 12:40:23;;;;;;;10.13;6.65;;;21.50;99.90;;;;;;5023442;28;20072;-28
2022/06/07 12:42:50;;;;;;;9.60;6.28;;;21.10;99.90;;;;;;5039011;28;20570;-28
2022/06/07 12:45:37;;;;;;;9.25;6.20;;;21.20;99.90;;;;;;5022743;28;20175;-27
2022/06/07 12:48:16;;;;;;;10.55;6.70;;;21.60;99.90;;;;;;5039678;28;20029;-28
2022/06/07 12:50:47;;;;;;;8.63;6.47;;;21.60;99.90;;;;;;5053661;28;20037;-30
2022/06/07 12:53:22;;;;;;;9.65;6.10;;;21.90;99.90;;;;;;5037023;28;20045;-30
2022/06/07 12:55:58;;;;;;;10.75;6.25;;;21.90;99.90;;;;;;5022777;28;20037;-29
2022/06/07 12:58:29;;;;;;;9.90;5.75;;;22.10;99.90;;;;;;5022064;28;20076;-30
2022/06/07 13:01:18;;;;;;;9.35;5.50;;;22.30;99.90;;;;;;5021618;28;20036;-30
2022/06/07 13:03:45;;;;;;;7.50;5.88;;;22.40;99.90;;;;;;5030105;28;20045;-30
2022/06/07 13:06:18;;;;;;;8.48;5.93;;;21.80;99.90;;;;;;5038594;28;20045;-31
2022/06/07 13:09:01;;;;;;;9.02;6.20;;;21.50;99.90;;;;;;5020541;28;20033;-30